»·PEaware :: N172SP KSNA-KSNA

N172SP :: KSNA-KSNA

FLIGHT INFORMATION

Flight Status: Arrived
Operator: Privately registered:
United States
More flights under this callsign
Pilot: Anonymous 35298 (35298)
Aircraft: CESSNA 172 SKYHAWK
(C172)
More flights by this aircraft type
Origin: KSNA John Wayne-Orange Co
United States
Destination: KSNA John Wayne-Orange Co
United States
More flights between these airports :: More routes between these airports
Route: SLI
File this flight plan on PilotEdge
Remarks: I-1 Rating
Altitude:
(Current/Filed)
3,000ft
Speed:
(Current/Filed)
100kts
Departed: 06-Oct-21 01:07 PM
Arrived: 06-Oct-21 01:35 PM
Distance/Time
Traveled:
0nm/0:28
Distance/Time
To Go:
Arrived

Flight Plot

Page will automatically refresh every two minutes.


Map Options




Map Legend


Flown Route
Filed Route
Departure Airport
Arrival Airport
Navaid (VOR, NDB)
Fix

Horizontal Profiles

Position Reports

Time Latitude Longitude Heading Altitude Ground
Speed
06-Oct-21 12:31 33.672388 -117.867035 200 60ft 0kts
06-Oct-21 12:33 33.672388 -117.867035 200 60ft 0kts
06-Oct-21 12:34 33.672388 -117.867035 200 60ft 0kts
06-Oct-21 12:35 33.672388 -117.867035 200 60ft 0kts
06-Oct-21 12:36 33.672388 -117.867035 200 60ft 0kts
06-Oct-21 12:37 33.672388 -117.867035 200 60ft 0kts
06-Oct-21 12:38 33.672388 -117.867035 200 60ft 0kts
06-Oct-21 12:39 33.672388 -117.867035 200 60ft 0kts
06-Oct-21 12:40 33.672388 -117.867035 200 60ft 0kts
06-Oct-21 12:41 33.672388 -117.867035 200 60ft 0kts
06-Oct-21 12:42 33.672388 -117.867035 200 60ft 0kts
06-Oct-21 12:43 33.672388 -117.867035 200 60ft 0kts
06-Oct-21 12:44 33.672388 -117.867035 200 60ft 0kts
06-Oct-21 12:45 33.672388 -117.867035 200 60ft 0kts
06-Oct-21 12:46 33.672388 -117.867035 200 60ft 0kts
06-Oct-21 12:47 33.672388 -117.867035 200 60ft 0kts
06-Oct-21 12:48 33.672388 -117.867035 200 60ft 0kts
06-Oct-21 12:49 33.672388 -117.867035 200 60ft 0kts
06-Oct-21 12:50 33.672388 -117.867035 200 60ft 0kts
06-Oct-21 12:51 33.672388 -117.867035 200 60ft 0kts
06-Oct-21 12:52 33.672388 -117.867035 200 60ft 0kts
06-Oct-21 12:53 33.672388 -117.867035 200 60ft 0kts
06-Oct-21 12:54 33.672388 -117.867035 200 60ft 0kts
06-Oct-21 12:55 33.672388 -117.867035 200 60ft 0kts
06-Oct-21 12:55 33.672388 -117.867035 200 60ft 0kts
06-Oct-21 12:57 33.672388 -117.867035 200 60ft 0kts
06-Oct-21 12:58 33.672388 -117.867035 200 60ft 0kts
06-Oct-21 12:59 33.672388 -117.867035 200 60ft 0kts
06-Oct-21 12:59 33.672314 -117.867072 208 60ft 4kts
06-Oct-21 13:00 33.674166 -117.867056 25 60ft 8kts
06-Oct-21 13:02 33.676863 -117.865331 29 60ft 10kts
06-Oct-21 13:03 33.679785 -117.863492 8 60ft 7kts
06-Oct-21 13:03 33.679956 -117.863599 306 60ft 0kts
06-Oct-21 13:04 33.679956 -117.863599 306 60ft 0kts
06-Oct-21 13:05 33.680104 -117.863912 295 60ft 10kts
06-Oct-21 13:06 33.671884 -117.871088 208 288ft 72kts
06-Oct-21 13:08 33.654187 -117.888100 232 1122ft 71kts
06-Oct-21 13:08 33.646362 -117.904701 289 1681ft 71kts
06-Oct-21 13:09 33.664881 -117.905989 11 2307ft 74kts
06-Oct-21 13:10 33.685087 -117.900051 11 2911ft 75kts
06-Oct-21 13:11 33.709770 -117.893514 11 2889ft 94kts
06-Oct-21 13:12 33.735235 -117.887129 11 2890ft 93kts
06-Oct-21 13:13 33.760544 -117.880783 11 2890ft 93kts
06-Oct-21 13:14 33.785849 -117.874437 11 2890ft 93kts
06-Oct-21 13:15 33.811140 -117.867844 22 2887ft 93kts
06-Oct-21 13:16 33.833312 -117.851737 31 2890ft 93kts
06-Oct-21 13:17 33.855282 -117.835273 31 2890ft 93kts
06-Oct-21 13:18 33.877280 -117.818790 31 2890ft 93kts
06-Oct-21 13:19 33.899272 -117.802333 31 2890ft 93kts
06-Oct-21 13:20 33.921309 -117.785879 31 2890ft 93kts
06-Oct-21 13:21 33.941184 -117.767054 78 2886ft 93kts
06-Oct-21 13:22 33.933188 -117.737700 111 2890ft 93kts
06-Oct-21 13:23 33.916783 -117.719205 190 2889ft 92kts
06-Oct-21 13:24 33.891530 -117.726000 192 2890ft 93kts
06-Oct-21 13:25 33.867193 -117.735245 225 2888ft 93kts
06-Oct-21 13:26 33.845902 -117.752875 220 2889ft 93kts
06-Oct-21 13:27 33.826494 -117.773590 221 2890ft 93kts
06-Oct-21 13:28 33.805228 -117.791389 193 2788ft 101kts
06-Oct-21 13:29 33.779316 -117.803302 206 2255ft 100kts
06-Oct-21 13:30 33.754398 -117.818898 207 1706ft 103kts
06-Oct-21 13:31 33.732217 -117.832979 207 1215ft 83kts
06-Oct-21 13:32 33.711454 -117.846147 207 741ft 93kts
06-Oct-21 13:33 33.688599 -117.860653 207 253ft 88kts
06-Oct-21 13:34 33.674902 -117.868659 164 60ft 12kts
06-Oct-21 13:35 33.674369 -117.868467 152 60ft 0kts
06-Oct-21 13:36 33.672502 -117.866663 171 60ft 5kts
06-Oct-21 13:37 33.672238 -117.866715 206 60ft 0kts
06-Oct-21 13:38 33.672231 -117.866719 206 60ft 0kts
06-Oct-21 13:39 33.672231 -117.866719 206 60ft 0kts
06-Oct-21 13:40 33.672231 -117.866719 206 60ft 0kts
06-Oct-21 13:41 33.672231 -117.866719 206 60ft 0kts
06-Oct-21 13:42 33.672231 -117.866719 206 60ft 0kts
06-Oct-21 13:43 33.672231 -117.866719 206 60ft 0kts
06-Oct-21 13:44 33.672231 -117.866719 206 60ft 0kts
06-Oct-21 13:45 33.672231 -117.866719 206 60ft 0kts

Navigation Log

Ident Type
Flight plan parsing failed, navigation log unavailable